Time;durP1;ratioP1;P1;durP2;ratioP2;P2;SDS_P1;SDS_P2;PMS_P1;PMS_P2;Temp;Humidity;BMP_temperature;BMP_pressure;BME280_temperature;BME280_humidity;BME280_pressure;Samples;Min_cycle;Max_cycle;Signal;HPM_P1;HPM_P2
2024/03/28 09:33:42;;;;;;;;;16.50;13.00;;;;;18.77;52.49;98013.77;110637;247;104551;-59
2024/03/28 09:36:24;;;;;;;;;18.00;13.33;;;;;19.24;52.40;98014.27;112504;235;42140;-55
2024/03/28 09:39:01;;;;;;;;;17.00;15.00;;;;;19.45;51.81;98014.80;112486;232;160061;-57
2024/03/28 09:41:46;;;;;;;;;19.00;15.00;;;;;19.59;50.16;98011.02;112835;235;39139;-55
2024/03/28 09:44:22;;;;;;;;;13.00;11.00;;;;;19.54;50.25;98012.45;113141;226;160491;-57
2024/03/28 09:47:08;;;;;;;;;18.50;15.00;;;;;19.44;50.29;98006.62;111940;224;1762031;-56
2024/03/28 09:49:51;;;;;;;;;19.00;15.00;;;;;19.29;50.30;98003.23;113227;225;160879;-55
2024/03/28 09:52:37;;;;;;;;;19.00;14.00;;;;;19.15;51.07;97997.08;113388;225;41039;-56
2024/03/28 09:55:14;;;;;;;;;18.00;13.00;;;;;19.12;50.73;97994.69;113458;228;40867;-59
2024/03/28 09:57:55;;;;;;;;;16.00;14.00;;;;;19.20;51.15;97994.32;113258;224;160997;-59
2024/03/28 10:00:29;;;;;;;;;14.00;12.00;;;;;19.43;51.13;97992.54;113404;224;39769;-55
2024/03/28 10:03:16;;;;;;;;;17.00;13.00;;;;;19.51;51.02;97999.46;113207;225;160346;-55
2024/03/28 10:05:54;;;;;;;;;20.00;15.00;;;;;19.58;50.80;97998.45;113460;228;40512;-59
2024/03/28 10:08:32;;;;;;;;;15.00;13.00;;;;;19.66;50.61;97999.92;113252;224;160339;-56
2024/03/28 10:11:19;;;;;;;;;18.33;14.67;;;;;19.65;50.57;97994.95;113453;224;40470;-54
2024/03/28 10:14:14;;;;;;;;;12.00;10.00;;;;;19.57;50.85;97998.35;113259;224;160522;-56
2024/03/28 10:17:26;;;;;;;;;17.33;12.67;;;;;19.54;50.78;97999.73;113451;227;39714;-55
2024/03/28 10:20:11;;;;;;;;;15.00;12.00;;;;;19.40;50.43;98007.17;113226;224;160360;-54
2024/03/28 10:22:56;;;;;;;;;17.00;14.00;;;;;19.20;50.56;97993.70;113344;226;40783;-55
2024/03/28 10:25:39;;;;;;;;;15.00;11.50;;;;;19.17;50.65;97998.52;113464;226;39202;-57
2024/03/28 10:28:23;;;;;;;;;12.50;10.00;;;;;19.10;50.28;98000.03;113392;224;40537;-56
2024/03/28 10:31:04;;;;;;;;;15.00;12.00;;;;;19.12;50.39;97997.09;113395;226;39152;-57
2024/03/28 10:33:49;;;;;;;;;13.50;10.00;;;;;19.34;50.40;97996.11;113247;224;160630;-55
2024/03/28 10:36:29;;;;;;;;;15.00;12.00;;;;;19.63;50.32;98006.89;113525;226;39784;-55
2024/03/28 10:39:08;;;;;;;;;14.00;11.00;;;;;19.92;49.80;98006.41;113296;223;160373;-55
2024/03/28 10:41:44;;;;;;;;;18.00;13.00;;;;;20.04;49.95;98001.87;113399;223;39587;-55
2024/03/28 10:44:23;;;;;;;;;12.50;11.00;;;;;20.09;48.89;98005.81;113257;224;160777;-56
2024/03/28 10:46:59;;;;;;;;;14.00;11.00;;;;;19.81;48.86;98009.56;113427;225;39447;-56
2024/03/28 10:49:44;;;;;;;;;21.00;15.00;;;;;19.70;48.89;98004.77;113412;228;39851;-56
2024/03/28 10:52:28;;;;;;;;;17.00;13.00;;;;;19.56;49.00;98003.97;113435;228;41570;-58
2024/03/28 10:55:13;;;;;;;;;16.00;12.00;;;;;19.34;49.36;97995.69;113487;224;39761;-56
2024/03/28 10:57:57;;;;;;;;;13.00;11.00;;;;;19.29;49.66;97997.30;113249;227;160262;-57
2024/03/28 11:00:33;;;;;;;;;12.67;9.33;;;;;19.30;49.66;97998.87;113440;224;39894;-55
2024/03/28 11:03:11;;;;;;;;;18.00;13.00;;;;;19.31;49.63;97997.05;113296;227;160573;-57
2024/03/28 11:05:49;;;;;;;;;14.75;11.00;;;;;19.39;49.66;97991.21;113449;225;39742;-56
2024/03/28 11:08:33;;;;;;;;;11.00;9.00;;;;;19.56;50.30;97990.42;113215;225;160706;-56
2024/03/28 11:11:08;;;;;;;;;14.00;10.00;;;;;19.74;49.97;97996.69;113416;224;39039;-56
2024/03/28 11:13:46;;;;;;;;;15.00;12.00;;;;;19.73;49.27;98003.61;113409;224;39660;-56
2024/03/28 11:16:25;;;;;;;;;12.00;10.00;;;;;19.47;49.12;98006.22;113360;224;39560;-55
2024/03/28 11:19:04;;;;;;;;;11.50;8.50;;;;;19.31;49.24;98000.05;113401;224;39740;-54
2024/03/28 11:21:43;;;;;;;;;12.00;8.50;;;;;19.18;49.32;98002.98;113251;224;159857;-54
2024/03/28 11:24:32;;;;;;;;;15.00;11.00;;;;;19.09;49.64;98000.23;113386;227;39388;-55
2024/03/28 11:27:24;;;;;;;;;13.00;10.00;;;;;19.02;49.87;98003.58;113268;224;160432;-54
2024/03/28 11:30:14;;;;;;;;;13.00;10.00;;;;;18.93;50.35;98006.80;113395;224;40277;-54
2024/03/28 11:33:03;;;;;;;;;15.00;11.00;;;;;18.92;50.56;98007.91;113213;223;160508;-53
2024/03/28 11:35:39;;;;;;;;;15.00;12.00;;;;;18.78;50.65;98018.61;113409;223;39992;-54
2024/03/28 11:38:19;;;;;;;;;16.00;12.75;;;;;18.58;51.04;98019.02;113225;223;160555;-56
2024/03/28 11:40:59;;;;;;;;;16.50;13.00;;;;;18.32;51.57;98022.80;113402;223;40316;-55
2024/03/28 11:43:37;;;;;;;;;17.00;12.00;;;;;18.15;51.82;98023.66;113424;223;39992;-56
2024/03/28 11:46:14;;;;;;;;;14.00;12.00;;;;;18.05;52.42;98021.58;113240;223;160218;-57
2024/03/28 11:49:01;;;;;;;;;11.00;9.00;;;;;18.00;52.69;98027.38;113500;223;40910;-57
2024/03/28 11:51:42;;;;;;;;;15.00;13.00;;;;;17.88;52.99;98033.06;113259;223;160309;-58
2024/03/28 11:54:21;;;;;;;;;14.50;10.50;;;;;17.78;53.00;98041.67;113491;223;39586;-54
2024/03/28 11:57:03;;;;;;;;;10.00;9.00;;;;;17.67;53.44;98047.21;113291;223;160284;-54
2024/03/28 11:59:43;;;;;;;;;12.00;9.50;;;;;17.61;53.73;98051.27;113489;223;39636;-55
2024/03/28 12:02:19;;;;;;;;;19.00;13.00;;;;;17.47;54.43;98058.06;113284;223;160385;-55
2024/03/28 12:05:08;;;;;;;;;17.00;11.00;;;;;17.37;55.09;98056.89;113426;223;39476;-53
2024/03/28 12:07:48;;;;;;;;;14.50;11.00;;;;;17.26;55.80;98057.33;113466;223;40443;-53
2024/03/28 12:10:25;;;;;;;;;14.00;11.33;;;;;17.17;56.42;98058.85;113399;225;39410;-56
2024/03/28 12:13:08;;;;;;;;;13.00;10.00;;;;;17.08;57.07;98063.30;113446;223;39621;-55
2024/03/28 12:15:56;;;;;;;;;16.00;11.00;;;;;17.06;57.77;98065.73;113283;223;160291;-57
2024/03/28 12:18:37;;;;;;;;;16.00;13.50;;;;;17.02;58.32;98050.38;113443;223;40675;-57
2024/03/28 12:21:17;;;;;;;;;17.00;12.00;;;;;16.99;58.69;98043.64;113240;227;160724;-55
2024/03/28 12:23:52;;;;;;;;;15.00;12.00;;;;;17.01;59.00;98046.02;113380;223;39913;-56
2024/03/28 12:26:30;;;;;;;;;15.00;12.00;;;;;16.93;59.11;98055.21;113263;226;160853;-57
2024/03/28 12:29:08;;;;;;;;;13.67;10.00;;;;;16.81;59.39;98048.45;113356;225;40102;-55
2024/03/28 12:31:43;;;;;;;;;15.00;12.00;;;;;16.72;59.10;98050.55;113425;227;39303;-54
2024/03/28 12:34:22;;;;;;;;;14.00;11.00;;;;;16.68;58.95;98049.16;113402;223;39888;-54
2024/03/28 12:37:01;;;;;;;;;13.50;10.50;;;;;16.56;59.14;98051.08;113596;221;40581;-54
2024/03/28 12:39:44;;;;;;;;;12.00;10.00;;;;;16.48;59.14;98058.46;113320;222;160562;-55
2024/03/28 12:42:26;;;;;;;;;12.00;9.00;;;;;16.41;59.40;98058.23;113431;223;41059;-56
2024/03/28 12:45:13;;;;;;;;;15.00;11.00;;;;;16.34;59.63;98058.99;113280;223;160696;-57
2024/03/28 12:48:01;;;;;;;;;14.50;10.50;;;;;16.35;59.66;98057.58;113478;223;41526;-57
2024/03/28 12:50:40;;;;;;;;;14.00;11.00;;;;;16.36;59.77;98054.23;113285;223;161540;-58
2024/03/28 12:53:16;;;;;;;;;12.67;10.00;;;;;16.30;59.80;98053.85;113502;226;40317;-58
2024/03/28 12:55:54;;;;;;;;;11.00;9.00;;;;;16.27;59.86;98055.06;113479;227;39878;-57
2024/03/28 12:58:35;;;;;;;;;14.50;11.00;;;;;16.27;59.97;98053.17;113425;224;39066;-57
2024/03/28 13:01:15;;;;;;;;;11.25;9.00;;;;;16.24;60.03;98058.42;113481;226;40661;-56
2024/03/28 13:03:51;;;;;;;;;9.00;7.00;;;;;16.19;60.01;98060.79;113240;224;159824;-56
2024/03/28 13:06:35;;;;;;;;;10.50;9.00;;;;;16.18;60.21;98061.17;113640;220;39459;-59
2024/03/28 13:09:12;;;;;;;;;11.00;10.00;;;;;16.23;60.07;98062.56;113428;221;160905;-56
2024/03/28 13:11:49;;;;;;;;;13.67;9.67;;;;;16.25;60.14;98059.77;113600;220;39235;-55
2024/03/28 13:14:24;;;;;;;;;11.00;9.00;;;;;16.23;60.23;98064.27;113424;220;160662;-56
2024/03/28 13:16:59;;;;;;;;;13.00;10.00;;;;;16.21;60.32;98066.60;113611;225;39676;-55
2024/03/28 13:19:35;;;;;;;;;10.00;8.00;;;;;16.14;60.50;98067.36;113601;222;39979;-58
2024/03/28 13:22:15;;;;;;;;;14.00;11.00;;;;;16.08;60.44;98068.76;113448;220;160530;-58
2024/03/28 13:24:52;;;;;;;;;11.67;10.00;;;;;16.00;60.57;98073.10;113654;224;40007;-60
2024/03/28 13:27:34;;;;;;;;;14.00;10.67;;;;;15.98;60.67;98077.53;113521;222;160341;-59
2024/03/28 13:30:10;;;;;;;;;11.00;9.00;;;;;15.99;60.96;98078.67;113638;221;39398;-57
2024/03/28 13:32:49;;;;;;;;;15.00;12.00;;;;;15.97;61.74;98084.57;113430;224;160240;-57
2024/03/28 13:35:36;;;;;;;;;12.00;10.00;;;;;15.91;62.29;98086.82;113698;220;39508;-57
2024/03/28 13:38:17;;;;;;;;;12.00;10.00;;;;;15.86;62.54;98086.45;113449;220;160943;-57
2024/03/28 13:41:00;;;;;;;;;12.00;10.00;;;;;15.85;62.62;98090.06;113670;221;39668;-58
2024/03/28 13:43:38;;;;;;;;;12.00;9.50;;;;;15.81;62.56;98091.60;113659;222;40405;-57
2024/03/28 13:46:22;;;;;;;;;14.00;12.00;;;;;15.78;62.79;98104.69;113654;221;159787;-53
2024/03/28 13:48:59;;;;;;;;;16.00;13.00;;;;;15.75;62.96;98114.45;113662;220;39239;-54
2024/03/28 13:51:37;;;;;;;;;12.67;10.00;;;;;15.63;64.36;98126.68;113583;225;160782;-54
2024/03/28 13:54:20;;;;;;;;;11.25;8.75;;;;;15.29;66.43;98121.52;113636;220;41030;-55
2024/03/28 13:57:06;;;;;;;;;12.00;10.00;;;;;14.79;68.46;98115.73;113487;224;160599;-56
2024/03/28 13:59:51;;;;;;;;;7.00;6.00;;;;;14.50;70.16;98118.06;113662;224;40052;-56
2024/03/28 14:02:28;;;;;;;;;9.00;7.00;;;;;14.25;70.06;98116.36;113468;220;161248;-55
2024/03/28 14:05:06;;;;;;;;;9.00;8.00;;;;;14.13;70.45;98118.63;113691;221;39347;-59
2024/03/28 14:07:48;;;;;;;;;7.00;6.00;;;;;14.08;70.30;98104.27;113645;220;39625;-59
2024/03/28 14:10:22;;;;;;;;;9.00;8.00;;;;;14.05;70.70;98098.98;113464;221;160665;-58
2024/03/28 14:13:05;;;;;;;;;11.00;8.67;;;;;13.98;71.69;98099.84;113634;220;40939;-57
2024/03/28 14:15:39;;;;;;;;;11.33;8.67;;;;;13.90;73.03;98096.98;113509;222;161372;-54
2024/03/28 14:18:18;;;;;;;;;8.00;7.00;;;;;13.88;73.00;98093.52;113633;220;39992;-54
2024/03/28 14:21:01;;;;;;;;;11.00;9.00;;;;;13.91;73.84;98087.45;113481;220;160951;-57
2024/03/28 14:24:17;;;;;;;;;8.00;7.00;;;;;13.94;73.83;98092.23;113655;224;40877;-57
2024/03/28 14:27:00;;;;;;;;;10.50;8.50;;;;;13.87;74.36;98083.14;113474;220;161199;-58
2024/03/28 14:29:36;;;;;;;;;9.00;7.00;;;;;13.85;74.59;98089.16;113408;220;42518;-55
2024/03/28 14:32:11;;;;;;;;;11.00;9.00;;;;;13.79;74.94;98088.98;113433;225;161293;-55
2024/03/28 14:34:45;;;;;;;;;11.00;10.00;;;;;13.77;75.27;98094.17;113652;225;39717;-58
2024/03/28 14:37:23;;;;;;;;;10.25;7.50;;;;;13.88;75.23;98094.61;113599;222;39860;-60
2024/03/28 14:39:57;;;;;;;;;7.00;7.00;;;;;13.87;75.58;98097.37;113465;221;161433;-58
2024/03/28 14:42:38;;;;;;;;;8.50;8.00;;;;;13.93;75.63;98103.58;113592;220;39390;-58
2024/03/28 14:45:14;;;;;;;;;11.50;9.00;;;;;13.98;75.81;98105.27;113453;221;161022;-58
2024/03/28 14:47:52;;;;;;;;;8.00;7.00;;;;;13.96;75.42;98110.05;113620;220;39436;-57
2024/03/28 14:50:28;;;;;;;;;10.00;7.00;;;;;13.93;75.59;98119.42;113507;220;161109;-55
2024/03/28 14:53:12;;;;;;;;;11.00;9.00;;;;;13.88;75.86;98128.05;113684;224;40351;-59
2024/03/28 14:55:58;;;;;;;;;9.00;8.00;;;;;13.81;75.89;98131.82;113663;220;39521;-57
2024/03/28 14:58:37;;;;;;;;;8.00;7.00;;;;;13.77;76.07;98142.48;113611;222;40396;-58
2024/03/28 15:01:18;;;;;;;;;7.00;6.00;;;;;13.72;76.46;98148.92;113662;220;39343;-57
2024/03/28 15:03:55;;;;;;;;;10.50;8.00;;;;;13.73;76.47;98159.73;113533;224;161127;-55
2024/03/28 15:06:35;;;;;;;;;13.00;11.00;;;;;13.73;76.71;98158.65;113607;221;39702;-55
2024/03/28 15:09:10;;;;;;;;;10.00;7.50;;;;;13.72;76.76;98160.20;113439;220;161476;-56
2024/03/28 15:11:44;;;;;;;;;12.00;10.00;;;;;13.71;76.83;98171.10;113648;220;39144;-55
2024/03/28 15:14:19;;;;;;;;;9.00;8.00;;;;;13.67;76.95;98175.60;113481;220;161676;-55
2024/03/28 15:17:03;;;;;;;;;10.00;8.50;;;;;13.64;77.43;98182.90;113628;221;39571;-55
2024/03/28 15:19:46;;;;;;;;;13.00;10.00;;;;;13.65;77.18;98189.69;113584;220;39790;-54
2024/03/28 15:22:22;;;;;;;;;10.00;8.50;;;;;13.69;77.05;98188.89;113417;221;161417;-54
2024/03/28 15:25:00;;;;;;;;;10.00;8.00;;;;;13.69;76.34;98192.21;113576;220;40208;-54
2024/03/28 15:27:34;;;;;;;;;6.00;6.00;;;;;13.69;75.89;98192.91;113431;221;160696;-56
2024/03/28 15:30:15;;;;;;;;;7.00;6.00;;;;;13.65;75.19;98196.95;113577;220;40166;-53
2024/03/28 15:32:57;;;;;;;;;7.00;6.00;;;;;13.63;74.91;98195.16;113406;220;160437;-54
2024/03/28 15:35:41;;;;;;;;;4.00;4.00;;;;;13.64;74.42;98200.80;113660;220;39726;-54
2024/03/28 15:38:26;;;;;;;;;5.00;4.00;;;;;13.61;73.60;98204.64;113466;221;160739;-56
2024/03/28 15:41:06;;;;;;;;;3.00;3.00;;;;;13.56;73.23;98206.95;113610;224;39541;-58
2024/03/28 15:43:49;;;;;;;;;4.00;3.00;;;;;13.52;72.91;98213.05;113650;220;39721;-57
2024/03/28 15:46:24;;;;;;;;;3.00;3.00;;;;;13.54;72.63;98213.23;113451;220;160747;-56
2024/03/28 15:49:06;;;;;;;;;5.00;4.00;;;;;13.60;72.46;98212.61;113719;220;39461;-57
2024/03/28 15:51:47;;;;;;;;;4.00;3.00;;;;;13.66;72.27;98216.14;113472;224;160784;-57
2024/03/28 15:54:31;;;;;;;;;5.00;4.00;;;;;13.70;72.08;98222.00;113613;224;40280;-58
2024/03/28 15:57:07;;;;;;;;;3.33;3.00;;;;;13.72;71.92;98225.34;113444;220;160501;-57
2024/03/28 15:59:48;;;;;;;;;4.50;4.00;;;;;13.73;71.80;98233.73;113645;224;38838;-54
2024/03/28 16:02:27;;;;;;;;;3.00;3.00;;;;;13.71;72.03;98239.05;113440;220;160725;-54
2024/03/28 16:05:11;;;;;;;;;4.00;4.00;;;;;13.67;71.92;98240.93;113585;224;39156;-58
2024/03/28 16:07:46;;;;;;;;;4.00;4.00;;;;;13.63;72.01;98245.95;113627;224;39090;-57
2024/03/28 16:10:22;;;;;;;;;3.00;3.00;;;;;13.59;71.86;98255.52;113461;221;160892;-54
2024/03/28 16:13:05;;;;;;;;;4.00;3.50;;;;;13.55;71.89;98255.93;113596;220;39005;-55
2024/03/28 16:15:41;;;;;;;;;6.00;4.50;;;;;13.52;71.65;98254.34;113404;221;161337;-59
2024/03/28 16:18:17;;;;;;;;;4.00;4.00;;;;;13.50;71.51;98260.50;113639;220;39104;-57
2024/03/28 16:20:57;;;;;;;;;4.00;4.00;;;;;13.50;71.42;98261.36;113410;224;161221;-57
2024/03/28 16:23:32;;;;;;;;;4.00;4.00;;;;;13.47;71.31;98261.18;113586;221;40486;-58
2024/03/28 16:26:06;;;;;;;;;5.00;4.00;;;;;13.45;71.02;98270.30;113436;220;160681;-57
2024/03/28 16:28:43;;;;;;;;;4.00;4.00;;;;;13.44;70.70;98265.13;113593;221;39210;-57
2024/03/28 16:31:29;;;;;;;;;5.67;5.00;;;;;13.40;70.82;98266.94;113592;221;40155;-55
2024/03/28 16:34:09;;;;;;;;;6.33;5.00;;;;;13.40;70.66;98269.82;113413;224;160465;-57
2024/03/28 16:36:47;;;;;;;;;5.00;4.00;;;;;13.38;70.78;98281.46;113580;221;39681;-57
2024/03/28 16:39:33;;;;;;;;;4.00;4.00;;;;;13.36;70.84;98283.28;113473;224;160663;-58
2024/03/28 16:42:10;;;;;;;;;5.00;4.50;;;;;13.31;70.77;98286.67;113591;220;41052;-59
2024/03/28 16:44:45;;;;;;;;;5.00;4.50;;;;;13.25;70.71;98294.86;113421;220;162279;-57
2024/03/28 16:47:27;;;;;;;;;4.00;4.00;;;;;13.17;70.75;98295.55;113617;221;40026;-57
2024/03/28 16:50:02;;;;;;;;;4.00;4.00;;;;;13.14;70.87;98301.20;113601;224;39036;-57
2024/03/28 16:52:36;;;;;;;;;4.00;3.50;;;;;13.07;71.04;98311.54;113613;224;40757;-56
2024/03/28 16:55:12;;;;;;;;;3.50;3.00;;;;;12.99;71.11;98313.45;113592;220;39923;-56
2024/03/28 16:57:48;;;;;;;;;6.00;5.00;;;;;12.91;71.33;98318.17;113406;220;160534;-55
2024/03/28 17:00:22;;;;;;;;;5.00;4.00;;;;;12.80;71.47;98322.18;113641;220;41097;-59
2024/03/28 17:03:04;;;;;;;;;4.00;4.00;;;;;12.69;71.51;98332.89;113428;224;160330;-57
2024/03/28 17:05:39;;;;;;;;;5.00;4.67;;;;;12.58;71.51;98334.98;113630;220;40611;-59
2024/03/28 17:08:21;;;;;;;;;6.00;4.50;;;;;12.48;71.66;98339.77;113430;220;162124;-59
2024/03/28 17:10:57;;;;;;;;;5.00;4.00;;;;;12.37;71.80;98346.04;113642;220;39871;-55
2024/03/28 17:13:37;;;;;;;;;5.00;5.00;;;;;12.30;71.92;98347.42;113629;220;39489;-54
2024/03/28 17:16:15;;;;;;;;;5.50;5.00;;;;;12.27;72.19;98359.66;113435;220;161137;-55
2024/03/28 17:18:53;;;;;;;;;7.00;6.00;;;;;12.29;72.16;98368.83;113603;220;39844;-57
2024/03/28 17:21:34;;;;;;;;;6.00;5.00;;;;;12.25;72.30;98377.28;113431;224;160701;-57
2024/03/28 17:24:20;;;;;;;;;4.00;4.00;;;;;12.22;72.51;98386.96;113657;220;39208;-55
2024/03/28 17:26:55;;;;;;;;;6.00;5.00;;;;;12.18;72.60;98388.97;113539;221;160369;-55
2024/03/28 17:29:29;;;;;;;;;5.00;5.00;;;;;12.14;72.51;98390.38;113713;220;39716;-55
2024/03/28 17:32:04;;;;;;;;;5.00;5.00;;;;;12.08;72.76;98392.40;113622;224;39422;-56
2024/03/28 17:34:39;;;;;;;;;4.00;4.00;;;;;12.03;72.85;98399.13;113614;221;39095;-55
2024/03/28 17:37:20;;;;;;;;;5.00;4.67;;;;;11.93;72.95;98405.86;113591;224;39597;-55
2024/03/28 17:40:08;;;;;;;;;5.00;4.50;;;;;11.84;72.97;98410.30;113510;225;160623;-56
2024/03/28 17:42:52;;;;;;;;;5.00;5.00;;;;;11.75;73.31;98412.80;113622;220;39914;-56
2024/03/28 17:45:32;;;;;;;;;5.25;5.00;;;;;11.70;73.47;98415.75;113469;222;161670;-56
2024/03/28 17:48:07;;;;;;;;;6.00;5.00;;;;;11.64;73.52;98419.36;112792;224;907861;-55
2024/03/28 17:50:44;;;;;;;;;6.50;5.50;;;;;11.54;73.64;98424.80;113436;220;161540;-59
2024/03/28 17:53:21;;;;;;;;;7.00;5.25;;;;;11.47;73.92;98429.80;113655;221;39589;-59
2024/03/28 17:56:03;;;;;;;;;9.00;5.00;;;;;11.40;74.09;98434.08;113574;225;39685;-59
2024/03/28 17:58:45;;;;;;;;;8.00;7.00;;;;;11.33;74.17;98430.69;113591;221;40195;-58
2024/03/28 18:01:28;;;;;;;;;7.00;7.00;;;;;11.24;74.39;98438.67;113570;224;39380;-58
2024/03/28 18:04:09;;;;;;;;;8.00;7.00;;;;;11.17;74.60;98441.56;113412;221;161127;-56
2024/03/28 18:06:47;;;;;;;;;9.00;7.00;;;;;11.12;74.89;98442.40;113599;220;41196;-58
2024/03/28 18:09:26;;;;;;;;;8.50;7.00;;;;;11.07;75.05;98443.38;113497;220;160721;-60
2024/03/28 18:12:08;;;;;;;;;8.00;8.00;;;;;10.95;75.23;98445.08;113620;224;39653;-59
2024/03/28 18:14:44;;;;;;;;;9.00;7.00;;;;;10.81;75.68;98444.08;113442;220;160691;-59
2024/03/28 18:17:22;;;;;;;;;6.00;6.00;;;;;10.71;75.74;98448.64;113712;224;39918;-58
2024/03/28 18:20:04;;;;;;;;;9.00;8.50;;;;;10.64;75.94;98455.71;113600;220;39744;-59
2024/03/28 18:22:43;;;;;;;;;9.00;6.00;;;;;10.51;76.18;98460.89;113645;225;40448;-58
2024/03/28 18:25:20;;;;;;;;;8.00;7.00;;;;;10.41;76.48;98465.94;113671;220;40370;-54
2024/03/28 18:27:59;;;;;;;;;5.00;4.00;;;;;10.27;76.63;98467.13;113404;224;185917;-54
2024/03/28 18:30:37;;;;;;;;;7.00;7.00;;;;;10.14;76.88;98472.27;113645;223;41162;-66
2024/03/28 18:33:12;;;;;;;;;8.00;6.00;;;;;10.07;77.13;98479.09;113431;220;161221;-59
2024/03/28 18:36:02;;;;;;;;;8.00;7.00;;;;;10.01;77.41;98479.98;113566;220;39857;-55
2024/03/28 18:38:48;;;;;;;;;8.00;7.33;;;;;9.98;77.62;98485.54;113384;220;162157;-54
2024/03/28 18:41:26;;;;;;;;;7.00;6.00;;;;;9.94;77.81;98484.42;113597;220;39283;-57
2024/03/28 18:44:05;;;;;;;;;10.00;9.00;;;;;9.86;77.93;98487.52;113564;220;39627;-56
2024/03/28 18:46:47;;;;;;;;;8.00;7.00;;;;;9.78;78.14;98490.55;113554;222;38963;-56
2024/03/28 18:49:32;;;;;;;;;10.00;8.00;;;;;9.68;78.37;98492.60;113585;220;40959;-54
2024/03/28 18:52:23;;;;;;;;;10.00;8.00;;;;;9.59;78.75;98497.21;113438;225;162234;-55
2024/03/28 18:55:02;;;;;;;;;11.50;9.00;;;;;9.53;78.90;98497.48;113574;220;39734;-57
2024/03/28 18:57:41;;;;;;;;;9.00;7.00;;;;;9.47;79.18;98496.73;113398;224;161137;-57
2024/03/28 19:00:16;;;;;;;;;9.00;8.00;;;;;9.40;79.31;98494.16;113581;221;39705;-57
2024/03/28 19:02:51;;;;;;;;;10.00;7.00;;;;;9.30;79.63;98491.64;113402;220;160369;-58
2024/03/28 19:05:28;;;;;;;;;9.00;8.00;;;;;9.24;79.69;98488.65;113594;224;39926;-58
2024/03/28 19:08:08;;;;;;;;;8.00;7.00;;;;;9.20;79.99;98490.70;113606;224;39769;-59
2024/03/28 19:10:49;;;;;;;;;7.00;6.00;;;;;9.16;80.12;98490.17;113557;221;40342;-56
2024/03/28 19:13:23;;;;;;;;;8.00;7.00;;;;;9.07;80.54;98491.95;113578;220;39218;-55
2024/03/28 19:15:58;;;;;;;;;5.00;4.50;;;;;9.02;80.76;98493.84;113428;224;161114;-55
2024/03/28 19:18:36;;;;;;;;;7.00;6.00;;;;;8.91;81.22;98492.10;113586;220;40388;-55
2024/03/28 19:21:15;;;;;;;;;9.00;8.00;;;;;8.85;81.53;98493.48;113387;224;161208;-57
2024/03/28 19:24:01;;;;;;;;;6.00;5.00;;;;;8.79;81.58;98497.08;113573;221;39257;-58
2024/03/28 19:26:38;;;;;;;;;6.00;6.00;;;;;8.75;81.85;98493.06;113413;225;161248;-57
2024/03/28 19:29:12;;;;;;;;;8.00;7.00;;;;;8.66;82.03;98493.83;113636;225;40725;-56
2024/03/28 19:32:00;;;;;;;;;5.00;5.00;;;;;8.59;82.16;98498.61;113606;221;40259;-57
2024/03/28 19:34:41;;;;;;;;;6.00;5.00;;;;;8.49;82.40;98493.93;113388;221;161007;-56
2024/03/28 19:37:20;;;;;;;;;4.00;4.00;;;;;8.42;82.40;98492.46;113556;221;39518;-55
2024/03/28 19:39:57;;;;;;;;;8.00;8.00;;;;;8.35;82.52;98491.25;113393;221;162549;-55
2024/03/28 19:42:39;;;;;;;;;9.00;8.00;;;;;8.28;82.55;98491.77;113585;224;38912;-56
2024/03/28 19:45:14;;;;;;;;;6.50;6.00;;;;;8.23;82.63;98489.97;113427;222;162035;-59
2024/03/28 19:47:53;;;;;;;;;9.00;8.00;;;;;8.14;82.80;98498.80;113481;223;39608;-59
2024/03/28 19:50:35;;;;;;;;;4.67;4.00;;;;;8.06;82.97;98500.41;113488;223;161047;-54
2024/03/28 19:53:10;;;;;;;;;9.00;7.00;;;;;7.99;82.97;98500.11;113559;221;40874;-55
2024/03/28 19:55:50;;;;;;;;;9.00;7.00;;;;;7.93;83.08;98499.65;113618;220;39939;-54
2024/03/28 19:58:28;;;;;;;;;8.00;6.00;;;;;7.84;83.27;98502.95;113438;221;161071;-54
2024/03/28 20:01:10;;;;;;;;;8.00;7.00;;;;;7.79;83.44;98503.52;113624;221;39183;-54
2024/03/28 20:03:46;;;;;;;;;10.00;8.00;;;;;7.72;83.67;98506.67;113425;221;161053;-54
2024/03/28 20:06:23;;;;;;;;;12.00;10.00;;;;;7.65;83.63;98508.00;113643;224;39285;-54
2024/03/28 20:09:04;;;;;;;;;9.00;8.00;;;;;7.57;83.84;98511.55;113465;224;161571;-56
2024/03/28 20:11:42;;;;;;;;;8.00;7.00;;;;;7.50;83.99;98512.42;113596;221;39460;-55
2024/03/28 20:14:19;;;;;;;;;11.50;9.00;;;;;7.42;84.14;98516.45;113467;221;161205;-54
2024/03/28 20:16:56;;;;;;;;;13.00;10.00;;;;;7.34;84.31;98519.39;113639;221;41205;-56
2024/03/28 20:19:36;;;;;;;;;11.00;8.00;;;;;7.30;84.32;98517.50;113694;220;39414;-56
2024/03/28 20:22:21;;;;;;;;;11.00;9.00;;;;;7.23;84.43;98524.56;113413;225;161019;-57
2024/03/28 20:25:00;;;;;;;;;5.00;4.00;;;;;7.19;84.62;98522.27;113580;224;39104;-54
2024/03/28 20:27:36;;;;;;;;;9.50;7.50;;;;;7.13;84.96;98520.59;113375;220;161965;-55
2024/03/28 20:30:12;;;;;;;;;6.25;6.00;;;;;7.07;84.96;98522.68;113505;223;39696;-56
2024/03/28 20:32:51;;;;;;;;;8.00;6.00;;;;;7.03;84.92;98519.64;113362;224;159666;-55
2024/03/28 20:35:29;;;;;;;;;8.00;6.50;;;;;6.96;85.17;98521.54;113579;221;39435;-54
2024/03/28 20:38:06;;;;;;;;;10.00;9.00;;;;;6.90;85.08;98523.49;113545;224;40174;-53
2024/03/28 20:40:52;;;;;;;;;15.00;13.00;;;;;6.81;85.46;98519.69;113581;221;42146;-55
2024/03/28 20:43:34;;;;;;;;;9.00;8.00;;;;;6.74;85.42;98520.11;113606;224;40613;-57
2024/03/28 20:46:20;;;;;;;;;10.00;6.33;;;;;6.68;85.53;98523.35;113391;221;161024;-56
2024/03/28 20:48:58;;;;;;;;;10.00;8.00;;;;;6.62;85.67;98524.81;113602;220;39830;-53
2024/03/28 20:51:45;;;;;;;;;7.00;7.00;;;;;6.57;85.76;98526.10;113448;225;160945;-52
2024/03/28 20:54:29;;;;;;;;;6.00;5.00;;;;;6.57;85.90;98529.56;113661;220;40661;-53
2024/03/28 20:57:07;;;;;;;;;9.33;8.00;;;;;6.54;86.20;98535.77;113437;220;160657;-53
2024/03/28 20:59:43;;;;;;;;;8.00;7.00;;;;;6.56;86.30;98533.52;113636;220;39520;-54
2024/03/28 21:02:22;;;;;;;;;5.00;5.00;;;;;6.50;86.24;98532.67;113474;224;161409;-55
2024/03/28 21:05:04;;;;;;;;;9.00;8.00;;;;;6.48;86.49;98531.77;113607;221;39855;-55
2024/03/28 21:10:46;;;;;;;;;7.00;6.00;;;;;6.42;86.84;98533.42;113508;224;40919;-57
2024/03/28 21:13:23;;;;;;;;;11.00;9.67;;;;;6.41;87.08;98531.08;113565;222;41382;-57
2024/03/28 21:16:03;;;;;;;;;6.00;5.00;;;;;6.40;87.29;98528.44;113444;220;160788;-57
2024/03/28 21:18:46;;;;;;;;;7.50;5.50;;;;;6.42;87.57;98524.84;113573;221;40185;-56
2024/03/28 21:21:22;;;;;;;;;12.00;10.00;;;;;6.47;87.74;98524.17;113412;221;160748;-55
2024/03/28 21:24:08;;;;;;;;;11.00;9.00;;;;;6.52;87.78;98526.48;113572;220;41111;-54
2024/03/28 21:26:46;;;;;;;;;15.50;11.00;;;;;6.57;87.82;98521.46;113463;220;160859;-54
2024/03/28 21:29:27;;;;;;;;;14.00;12.00;;;;;6.58;87.79;98520.56;113679;220;40482;-57
2024/03/28 21:32:08;;;;;;;;;11.00;9.00;;;;;6.59;88.10;98524.73;113622;220;39545;-57
2024/03/28 21:34:46;;;;;;;;;12.50;10.00;;;;;6.60;88.04;98527.45;113595;221;160885;-54
2024/03/28 21:37:22;;;;;;;;;12.00;11.00;;;;;6.62;88.31;98528.23;113639;220;39685;-54
2024/03/28 21:40:01;;;;;;;;;16.00;13.00;;;;;6.71;88.47;98530.28;113442;225;161692;-53
2024/03/28 21:42:38;;;;;;;;;12.00;11.00;;;;;6.80;88.56;98529.77;113602;222;41586;-52
2024/03/28 21:45:14;;;;;;;;;15.00;12.00;;;;;6.88;88.77;98531.39;113534;220;161010;-55
2024/03/28 21:47:51;;;;;;;;;15.00;12.00;;;;;6.99;88.91;98528.49;113698;224;39201;-55
2024/03/28 21:50:25;;;;;;;;;11.00;9.00;;;;;7.06;89.14;98529.84;113479;224;161400;-57
2024/03/28 21:53:06;;;;;;;;;18.00;16.00;;;;;7.13;89.29;98532.11;113704;221;38952;-57
2024/03/28 21:55:45;;;;;;;;;16.00;14.00;;;;;7.25;89.30;98530.73;113593;225;39679;-54
2024/03/28 21:58:24;;;;;;;;;12.00;10.50;;;;;7.28;89.41;98530.73;113457;225;161241;-54